Crescent Beach, Florida
Current Conditions -  °F | °C
As of 12:10 AM on Sunday 23 Nov 2014 (Local Time) from KSRQ Reporting Station
Overcast Overcast  
Wind Chill: 71°   Ceiling: 1400
Heat Index: 71°   Visibility: 10mi
Dew Point: 69°   Wind: 16mph
Humidity: 93%   Direction: 110°ESE
Pressure: 30.03"   Gusts: NA
Location:  27.2613°N, 82.5431°W
Report Text: KSRQ 230510Z 11014KT 10SM FEW010 BKN014 OVC049 22/21 A3003 RMK AO2 T02170206
Loading
Personal Weather Stations






























Interactive Weather Map New forecast layout! Learn more

10-Day Weather Forecast

Advertisements
Track Severe Weather on mobile